createdAt,value
2019-02-23T00:01:48.034Z,33.47
2019-02-23T00:04:18.236Z,30.90
2019-02-23T00:06:48.690Z,32.97
2019-02-23T00:09:19.371Z,32.20
2019-02-23T00:12:04.578Z,35.03
2019-02-23T00:14:49.800Z,31.57
2019-02-23T00:17:22.174Z,32.57
2019-02-23T00:20:24.365Z,28.90
2019-02-23T00:22:55.984Z,32.97
2019-02-23T00:25:26.191Z,30.17
2019-02-23T00:27:57.668Z,32.37
2019-02-23T00:30:35.764Z,37.00
2019-02-23T00:33:06.146Z,32.70
2019-02-23T00:35:36.465Z,33.27
2019-02-23T00:38:07.729Z,30.67
2019-02-23T00:40:37.922Z,36.50
2019-02-23T00:43:08.112Z,34.67
2019-02-23T00:45:38.358Z,33.10
2019-02-23T00:48:08.807Z,31.67
2019-02-23T00:50:59.988Z,30.70
2019-02-23T00:53:51.013Z,31.50
2019-02-23T00:56:21.218Z,30.07
2019-02-23T00:58:51.400Z,26.87
2019-02-23T01:01:21.620Z,34.43
2019-02-23T01:03:51.809Z,34.33
2019-02-23T01:06:48.617Z,33.97
2019-02-23T01:09:18.818Z,28.20
2019-02-23T01:11:49.013Z,30.00
2019-02-23T01:14:19.209Z,29.67
2019-02-23T01:16:55.649Z,32.43
2019-02-23T01:19:25.853Z,31.03
2019-02-23T01:21:56.059Z,34.10
2019-02-23T01:24:26.247Z,32.50
2019-02-23T01:26:57.389Z,35.27
2019-02-23T01:29:39.632Z,32.40
2019-02-23T01:32:17.657Z,29.73
2019-02-23T01:35:06.722Z,32.93
2019-02-23T01:37:36.932Z,33.63
2019-02-23T01:40:09.149Z,31.93
2019-02-23T01:42:39.365Z,36.83
2019-02-23T01:45:09.828Z,34.60
2019-02-23T01:47:50.446Z,38.13
2019-02-23T01:50:26.664Z,34.40
2019-02-23T01:52:58.780Z,31.67
2019-02-23T01:55:32.031Z,39.63
2019-02-23T01:58:02.260Z,42.30
2019-02-23T02:00:32.899Z,36.73
2019-02-23T02:03:03.179Z,36.47
2019-02-23T02:05:33.440Z,37.67
2019-02-23T02:08:03.720Z,35.17
2019-02-23T02:10:33.918Z,37.17
2019-02-23T02:13:14.129Z,38.43
2019-02-23T02:15:44.373Z,38.47
2019-02-23T02:18:14.561Z,36.93
2019-02-23T02:20:46.670Z,37.87
2019-02-23T02:23:16.871Z,39.53
2019-02-23T02:25:47.046Z,35.07
2019-02-23T02:28:18.323Z,37.30
2019-02-23T02:30:54.286Z,34.60
2019-02-23T02:33:24.614Z,36.63
2019-02-23T02:36:07.845Z,35.07
2019-02-23T02:38:58.678Z,39.10
2019-02-23T02:41:28.855Z,38.20
2019-02-23T02:43:59.058Z,31.20
2019-02-23T02:46:29.240Z,37.20
2019-02-23T02:49:02.122Z,36.67
2019-02-23T02:51:36.533Z,37.30
2019-02-23T02:54:06.733Z,34.77
2019-02-23T02:56:36.927Z,33.33
2019-02-23T02:59:07.117Z,32.53
2019-02-23T03:01:37.336Z,36.70
2019-02-23T03:04:09.473Z,31.93
2019-02-23T03:06:39.681Z,33.27
2019-02-23T03:09:28.272Z,31.70
2019-02-23T03:11:58.438Z,32.33
2019-02-23T03:14:28.663Z,31.37
2019-02-23T03:16:58.863Z,32.50
2019-02-23T03:19:29.118Z,35.30
2019-02-23T03:21:59.307Z,30.50
2019-02-23T03:24:38.367Z,32.47
2019-02-23T03:27:09.756Z,30.77
2019-02-23T03:29:46.714Z,36.77
2019-02-23T03:32:16.933Z,30.80
2019-02-23T03:34:49.107Z,31.43
2019-02-23T03:37:19.314Z,32.13
2019-02-23T03:39:49.489Z,32.33
2019-02-23T03:42:19.774Z,33.23
2019-02-23T03:44:49.953Z,33.00
2019-02-23T03:47:20.167Z,29.40
2019-02-23T03:49:50.345Z,31.07
2019-02-23T03:52:27.444Z,32.07
2019-02-23T03:55:03.535Z,31.97
2019-02-23T03:57:33.725Z,31.40
2019-02-23T04:00:13.824Z,32.90
2019-02-23T04:02:44.021Z,35.50
2019-02-23T04:05:14.222Z,32.97
2019-02-23T04:07:44.442Z,30.23
2019-02-23T04:10:34.226Z,30.40
2019-02-23T04:13:27.320Z,34.83
2019-02-23T04:15:58.531Z,32.07
2019-02-23T04:18:28.726Z,32.57
2019-02-23T04:21:01.998Z,34.27
2019-02-23T04:23:31.772Z,34.80
2019-02-23T04:26:01.962Z,30.30
2019-02-23T04:28:39.851Z,31.57
2019-02-23T04:31:10.048Z,32.73
2019-02-23T04:33:40.309Z,32.77
2019-02-23T04:36:15.621Z,37.00
2019-02-23T04:38:45.905Z,28.27
2019-02-23T04:41:23.845Z,29.30
2019-02-23T04:43:54.066Z,29.87
2019-02-23T04:46:24.279Z,28.80
2019-02-23T04:48:54.477Z,25.40
2019-02-23T04:51:24.688Z,26.53
2019-02-23T04:53:54.858Z,25.63
2019-02-23T04:56:25.069Z,28.40
2019-02-23T04:58:55.250Z,26.93
2019-02-23T05:01:25.439Z,25.40
2019-02-23T05:03:55.631Z,26.97
2019-02-23T05:09:49.959Z,25.40
2019-02-23T05:12:20.172Z,25.13
2019-02-23T05:15:02.793Z,22.77
2019-02-23T05:18:00.301Z,24.33
2019-02-23T05:20:44.852Z,24.17
2019-02-23T05:23:21.650Z,23.37
2019-02-23T05:25:51.861Z,24.70
2019-02-23T05:28:33.387Z,24.97
2019-02-23T05:31:28.523Z,22.63
2019-02-23T05:33:58.702Z,24.00
2019-02-23T05:36:28.899Z,24.33
2019-02-23T05:39:10.613Z,22.37
2019-02-23T05:41:40.812Z,23.37
2019-02-23T05:44:11.076Z,23.97
2019-02-23T05:46:41.277Z,23.30
2019-02-23T05:49:12.550Z,23.13
2019-02-23T05:51:56.155Z,22.93
2019-02-23T05:54:30.676Z,24.37
2019-02-23T05:57:45.563Z,24.97
2019-02-23T06:00:16.312Z,29.80
2019-02-23T06:02:46.515Z,21.90
2019-02-23T06:05:16.706Z,26.83
2019-02-23T06:07:47.834Z,23.37
2019-02-23T06:10:18.028Z,25.40
2019-02-23T06:12:48.315Z,25.33
2019-02-23T06:15:25.430Z,24.77
2019-02-23T06:17:55.638Z,23.83
2019-02-23T06:20:25.827Z,24.17
2019-02-23T06:23:02.729Z,26.00
2019-02-23T06:25:40.964Z,27.53
2019-02-23T06:28:11.158Z,24.13
2019-02-23T06:30:41.417Z,26.93
2019-02-23T06:33:12.693Z,27.47
2019-02-23T06:35:42.867Z,27.47
2019-02-23T06:38:13.077Z,27.07
2019-02-23T06:40:43.281Z,27.33
2019-02-23T06:43:36.306Z,24.63
2019-02-23T06:46:06.484Z,26.07
2019-02-23T06:48:36.692Z,26.47
2019-02-23T06:51:10.744Z,24.57
2019-02-23T06:53:40.937Z,24.97
2019-02-23T06:56:12.089Z,26.90
2019-02-23T06:58:42.288Z,25.13
2019-02-23T07:01:16.166Z,25.07
2019-02-23T07:03:54.255Z,27.27
2019-02-23T07:06:24.454Z,25.40
2019-02-23T07:08:54.663Z,24.73
2019-02-23T07:11:34.487Z,24.70
2019-02-23T07:14:11.932Z,24.97
2019-02-23T07:16:42.312Z,25.10
2019-02-23T07:19:12.532Z,25.13
2019-02-23T07:21:42.711Z,26.17
2019-02-23T07:24:15.990Z,23.47
2019-02-23T07:26:46.175Z,23.83
2019-02-23T07:29:16.461Z,32.37
2019-02-23T07:31:53.465Z,31.30
2019-02-23T07:34:32.766Z,21.80
2019-02-23T07:37:02.963Z,21.20
2019-02-23T07:39:34.214Z,24.33
2019-02-23T07:42:05.402Z,21.83
2019-02-23T07:44:42.452Z,23.03
2019-02-23T07:47:14.628Z,27.03
2019-02-23T07:49:57.045Z,21.07
2019-02-23T07:52:30.523Z,25.50
2019-02-23T07:55:01.772Z,26.37
2019-02-23T07:57:48.096Z,22.07
2019-02-23T08:00:23.958Z,21.93
2019-02-23T08:03:06.517Z,22.17
2019-02-23T08:05:59.244Z,27.13
2019-02-23T08:08:31.356Z,22.30
2019-02-23T08:11:01.572Z,19.83
2019-02-23T08:16:40.249Z,19.97
2019-02-23T08:19:22.790Z,21.57
2019-02-23T08:21:57.095Z,19.93
2019-02-23T08:24:27.282Z,20.67
2019-02-23T08:27:02.830Z,21.67
2019-02-23T08:29:33.047Z,20.60
2019-02-23T08:32:03.248Z,17.13
2019-02-23T08:34:33.450Z,21.80
2019-02-23T08:37:11.021Z,18.47
2019-02-23T08:39:48.986Z,19.70
2019-02-23T08:42:22.198Z,21.00
2019-02-23T08:44:56.349Z,20.97
2019-02-23T08:47:50.281Z,19.70
2019-02-23T08:50:27.196Z,20.77
2019-02-23T08:53:12.326Z,20.73
2019-02-23T08:55:42.516Z,22.37
2019-02-23T08:59:08.726Z,21.20
2019-02-23T09:01:40.836Z,21.43
2019-02-23T09:04:16.903Z,20.40
2019-02-23T09:06:47.100Z,19.27
2019-02-23T09:09:23.665Z,18.97
2019-02-23T09:11:53.924Z,19.90
2019-02-23T09:14:27.578Z,21.30
2019-02-23T09:16:57.782Z,21.53
2019-02-23T09:19:48.778Z,20.37
2019-02-23T09:22:30.747Z,19.87
2019-02-23T09:25:00.936Z,22.03
2019-02-23T09:27:31.153Z,21.70
2019-02-23T09:30:04.423Z,19.17
2019-02-23T09:32:37.615Z,22.13
2019-02-23T09:35:23.939Z,20.13
2019-02-23T09:38:00.680Z,19.63
2019-02-23T09:40:51.898Z,17.67
2019-02-23T09:43:35.962Z,19.17
2019-02-23T09:46:06.175Z,17.90
2019-02-23T09:48:45.244Z,18.90
2019-02-23T09:51:15.455Z,18.97
2019-02-23T09:53:53.659Z,18.00
2019-02-23T09:56:24.046Z,16.63
2019-02-23T09:59:26.523Z,20.17
2019-02-23T10:02:14.854Z,14.83
2019-02-23T10:05:11.937Z,18.40
2019-02-23T10:10:52.010Z,16.37
2019-02-23T10:13:22.230Z,16.43
2019-02-23T10:15:54.323Z,17.80
2019-02-23T10:18:24.525Z,19.60
2019-02-23T10:20:54.717Z,19.50
2019-02-23T10:23:35.856Z,18.77
2019-02-23T10:26:06.087Z,16.30
2019-02-23T10:28:37.264Z,17.17
2019-02-23T10:31:09.501Z,17.07
2019-02-23T10:33:47.541Z,16.10
2019-02-23T10:36:17.489Z,17.00
2019-02-23T10:38:49.636Z,15.90
2019-02-23T10:41:26.050Z,18.43
2019-02-23T10:44:00.108Z,17.83
2019-02-23T10:46:36.459Z,17.63
2019-02-23T10:49:27.595Z,17.53
2019-02-23T10:52:04.802Z,15.63
2019-02-23T10:54:48.921Z,17.10
2019-02-23T10:57:32.450Z,18.80
2019-02-23T11:00:28.888Z,17.97
2019-02-23T11:03:20.860Z,16.93
2019-02-23T11:05:51.073Z,14.83
2019-02-23T11:08:21.276Z,14.33
2019-02-23T11:10:52.415Z,16.10
2019-02-23T11:13:24.585Z,17.63
2019-02-23T11:15:54.943Z,14.70
2019-02-23T11:18:25.124Z,14.50
2019-02-23T11:20:55.340Z,14.17
2019-02-23T11:23:43.753Z,16.33
2019-02-23T11:26:09.496Z,12.70
2019-02-23T11:28:39.686Z,13.13
2019-02-23T11:31:09.958Z,10.73
2019-02-23T11:33:40.157Z,12.33
2019-02-23T11:36:10.359Z,12.03
2019-02-23T11:38:46.535Z,11.23
2019-02-23T11:41:16.834Z,9.73
2019-02-23T11:43:47.036Z,12.33
2019-02-23T11:46:17.243Z,11.23
2019-02-23T11:48:49.365Z,9.17
2019-02-23T11:51:24.165Z,10.73
2019-02-23T11:53:55.370Z,11.53
2019-02-23T11:56:25.640Z,10.83
2019-02-23T11:59:09.834Z,10.33
2019-02-23T12:01:45.886Z,11.30
2019-02-23T12:04:40.181Z,11.83
2019-02-23T12:07:36.840Z,11.10
2019-02-23T12:10:10.089Z,12.60
2019-02-23T12:12:40.282Z,14.33
2019-02-23T12:15:10.869Z,12.17
2019-02-23T12:17:41.050Z,10.80
2019-02-23T12:20:11.931Z,12.87
2019-02-23T12:22:42.178Z,11.37
2019-02-23T12:25:15.711Z,11.77
2019-02-23T12:27:44.303Z,11.33
2019-02-23T12:30:14.530Z,9.17
2019-02-23T12:32:44.784Z,10.97
2019-02-23T12:35:16.101Z,10.90
2019-02-23T12:37:46.288Z,12.77
2019-02-23T12:40:16.501Z,11.53
2019-02-23T12:42:46.710Z,11.33
2019-02-23T12:45:24.144Z,13.53
2019-02-23T12:47:54.324Z,10.90
2019-02-23T12:50:34.301Z,11.30
2019-02-23T12:53:04.630Z,10.90
2019-02-23T12:55:35.916Z,11.87
2019-02-23T12:58:58.191Z,8.67
2019-02-23T13:01:29.303Z,8.67
2019-02-23T13:03:59.481Z,8.17
2019-02-23T13:06:29.703Z,8.23
2019-02-23T13:09:17.250Z,8.43
2019-02-23T13:12:12.899Z,8.23
2019-02-23T13:15:01.218Z,8.77
2019-02-23T13:17:54.649Z,8.13
2019-02-23T13:21:05.797Z,8.40
2019-02-23T13:24:01.557Z,7.50
2019-02-23T13:26:54.686Z,9.73
2019-02-23T13:29:48.475Z,9.30
2019-02-23T13:32:59.360Z,8.10
2019-02-23T13:35:40.650Z,9.80
2019-02-23T13:38:33.337Z,7.53
2019-02-23T13:41:26.026Z,10.03
2019-02-23T13:44:28.221Z,11.27
2019-02-23T13:47:19.750Z,8.20
2019-02-23T13:50:32.668Z,10.37
2019-02-23T13:53:06.113Z,8.30
2019-02-23T13:55:47.746Z,8.90
2019-02-23T13:58:40.899Z,8.90
2019-02-23T14:01:24.314Z,10.07
2019-02-23T14:04:08.379Z,7.97
2019-02-23T14:06:44.281Z,7.40
2019-02-23T14:09:43.240Z,7.00
2019-02-23T14:12:27.965Z,8.03
2019-02-23T14:15:23.574Z,11.23
2019-02-23T14:18:18.092Z,7.87
2019-02-23T14:21:13.877Z,7.83
2019-02-23T14:23:56.245Z,7.93
2019-02-23T14:26:44.292Z,6.50
2019-02-23T14:29:44.472Z,7.30
2019-02-23T14:32:33.026Z,8.57
2019-02-23T14:35:11.338Z,7.97
2019-02-23T14:38:02.581Z,8.43
2019-02-23T14:40:50.852Z,8.40
2019-02-23T14:43:45.512Z,6.67
2019-02-23T14:46:42.120Z,8.37
2019-02-23T14:49:28.918Z,7.90
2019-02-23T14:52:14.560Z,9.70
2019-02-23T14:54:48.801Z,8.13
2019-02-23T14:57:37.027Z,7.37
2019-02-23T15:00:26.879Z,9.77
2019-02-23T15:03:02.187Z,6.93
2019-02-23T15:05:37.540Z,6.27
2019-02-23T15:08:45.776Z,7.87
2019-02-23T15:11:27.790Z,7.33
2019-02-23T15:14:32.754Z,8.17
2019-02-23T15:17:24.035Z,8.53
2019-02-23T15:20:16.982Z,7.60
2019-02-23T15:23:28.362Z,7.97
2019-02-23T15:26:22.311Z,8.57
2019-02-23T15:29:08.975Z,7.77
2019-02-23T15:31:59.869Z,7.90
2019-02-23T15:35:01.199Z,8.13
2019-02-23T15:37:38.350Z,9.27
2019-02-23T15:40:11.772Z,8.07
2019-02-23T15:42:46.128Z,8.43
2019-02-23T15:45:29.386Z,10.13
2019-02-23T15:48:27.050Z,8.13
2019-02-23T15:51:07.075Z,8.13
2019-02-23T15:53:38.198Z,8.37
2019-02-23T15:56:09.422Z,7.00
2019-02-23T15:58:40.593Z,8.83
2019-02-23T16:01:12.726Z,7.77
2019-02-23T16:03:42.932Z,13.43
2019-02-23T16:06:13.241Z,9.17
2019-02-23T16:08:43.439Z,10.47
2019-02-23T16:11:13.625Z,9.23
2019-02-23T16:13:48.144Z,8.53
2019-02-23T16:16:47.454Z,10.30
2019-02-23T16:19:19.325Z,10.87
2019-02-23T16:21:52.608Z,11.03
2019-02-23T16:24:21.502Z,12.40
2019-02-23T16:26:52.786Z,14.23
2019-02-23T16:29:27.362Z,13.80
2019-02-23T16:32:10.670Z,14.67
2019-02-23T16:34:40.891Z,18.30
2019-02-23T16:37:11.110Z,10.90
2019-02-23T16:39:49.614Z,10.27
2019-02-23T16:42:19.823Z,10.77
2019-02-23T16:44:51.987Z,10.77
2019-02-23T16:47:37.450Z,14.27
2019-02-23T16:50:09.522Z,26.00
2019-02-23T16:52:51.784Z,21.37
2019-02-23T16:55:22.032Z,16.30
2019-02-23T16:58:16.470Z,13.37
2019-02-23T17:00:47.731Z,12.13
2019-02-23T17:03:17.913Z,21.97
2019-02-23T17:05:48.162Z,23.17
2019-02-23T17:08:27.298Z,18.00
2019-02-23T17:10:58.665Z,17.47
2019-02-23T17:13:28.960Z,11.90
2019-02-23T17:15:59.175Z,11.93
2019-02-23T17:18:29.374Z,10.27
2019-02-23T17:21:04.710Z,14.10
2019-02-23T17:23:35.825Z,11.07
2019-02-23T17:26:06.060Z,13.13
2019-02-23T17:28:37.171Z,13.03
2019-02-23T17:31:07.445Z,12.03
2019-02-23T17:33:38.652Z,14.40
2019-02-23T17:36:15.274Z,11.57
2019-02-23T17:38:57.516Z,14.27
2019-02-23T17:41:27.890Z,12.13
2019-02-23T17:44:08.517Z,12.73
2019-02-23T17:46:38.794Z,9.63
2019-02-23T17:49:08.982Z,15.63
2019-02-23T17:51:39.190Z,18.13
2019-02-23T17:54:33.603Z,28.23
2019-02-23T17:57:04.767Z,59.97
2019-02-23T17:59:38.010Z,38.50
2019-02-23T18:02:09.226Z,29.53
2019-02-23T18:04:43.442Z,22.90
2019-02-23T18:07:14.660Z,22.00
2019-02-23T18:09:59.077Z,17.60
2019-02-23T18:12:37.646Z,12.30
2019-02-23T18:15:09.473Z,14.13
2019-02-23T18:17:39.870Z,11.43
2019-02-23T18:20:13.821Z,13.07
2019-02-23T18:22:44.038Z,13.37
2019-02-23T18:25:31.429Z,12.77
2019-02-23T18:28:01.639Z,15.03
2019-02-23T18:30:32.858Z,13.70
2019-02-23T18:33:03.073Z,11.20
2019-02-23T18:35:35.233Z,11.97
2019-02-23T18:38:09.644Z,10.80
2019-02-23T18:40:39.886Z,14.07
2019-02-23T18:43:12.040Z,16.43
2019-02-23T18:45:47.792Z,18.97
2019-02-23T18:48:18.145Z,13.60
2019-02-23T18:50:48.327Z,13.13
2019-02-23T18:53:19.509Z,19.20
2019-02-23T18:55:55.045Z,15.70
2019-02-23T18:58:27.385Z,12.10
2019-02-23T19:01:02.735Z,12.97
2019-02-23T19:03:48.293Z,15.27
2019-02-23T19:06:18.464Z,10.00
2019-02-23T19:08:48.673Z,11.77
2019-02-23T19:11:53.599Z,11.80
2019-02-23T19:14:32.048Z,10.90
2019-02-23T19:17:06.498Z,10.30
2019-02-23T19:19:36.789Z,10.40
2019-02-23T19:22:28.436Z,14.83
2019-02-23T19:24:58.628Z,18.03
2019-02-23T19:27:28.820Z,16.53
2019-02-23T19:30:06.854Z,16.17
2019-02-23T19:32:39.270Z,16.23
2019-02-23T19:35:24.307Z,12.80
2019-02-23T19:37:55.496Z,13.17
2019-02-23T19:40:27.670Z,14.17
2019-02-23T19:43:08.036Z,10.73
2019-02-23T19:45:44.502Z,11.63
2019-02-23T19:48:14.760Z,11.47
2019-02-23T19:51:00.277Z,11.37
2019-02-23T19:53:30.498Z,12.23
2019-02-23T19:56:00.658Z,12.20
2019-02-23T19:58:57.189Z,12.20
2019-02-23T20:01:28.331Z,11.60
2019-02-23T20:03:58.538Z,12.77
2019-02-23T20:06:28.736Z,14.03
2019-02-23T20:08:58.926Z,15.67
2019-02-23T20:11:40.100Z,13.83
2019-02-23T20:14:10.307Z,16.57
2019-02-23T20:16:42.444Z,16.10
2019-02-23T20:19:12.652Z,15.27
2019-02-23T20:21:42.864Z,17.10
2019-02-23T20:24:13.062Z,16.63
2019-02-23T20:26:55.908Z,14.00
2019-02-23T20:29:41.337Z,15.80
2019-02-23T20:32:30.006Z,17.73
2019-02-23T20:35:06.953Z,14.93
2019-02-23T20:37:47.379Z,14.67
2019-02-23T20:40:17.577Z,13.10
2019-02-23T20:42:47.753Z,14.37
2019-02-23T20:45:17.970Z,17.00
2019-02-23T20:47:48.234Z,13.40
2019-02-23T20:50:26.246Z,12.50
2019-02-23T20:53:02.738Z,12.60
2019-02-23T20:55:32.944Z,16.07
2019-02-23T20:58:25.346Z,14.77
2019-02-23T21:01:19.938Z,14.50
2019-02-23T21:03:50.299Z,12.73
2019-02-23T21:06:27.764Z,15.03
2019-02-23T21:09:08.145Z,13.73
2019-02-23T21:11:40.097Z,14.37
2019-02-23T21:14:17.317Z,20.23
2019-02-23T21:16:47.768Z,17.10
2019-02-23T21:19:18.009Z,13.83
2019-02-23T21:21:48.197Z,13.20
2019-02-23T21:24:18.397Z,13.83
2019-02-23T21:26:48.589Z,13.97
2019-02-23T21:29:18.775Z,13.50
2019-02-23T21:31:49.103Z,12.67
2019-02-23T21:34:19.273Z,17.20
2019-02-23T21:37:01.841Z,13.30
2019-02-23T21:39:32.056Z,14.17
2019-02-23T21:42:02.249Z,15.67
2019-02-23T21:45:06.781Z,16.17
2019-02-23T21:47:44.573Z,14.77
2019-02-23T21:50:15.108Z,15.00
2019-02-23T21:52:55.945Z,13.70
2019-02-23T21:55:27.943Z,14.93
2019-02-23T21:57:58.132Z,12.10
2019-02-23T22:00:29.138Z,16.83
2019-02-23T22:03:04.745Z,16.60
2019-02-23T22:05:39.539Z,14.70
2019-02-23T22:08:09.949Z,16.00
2019-02-23T22:10:40.219Z,16.30
2019-02-23T22:13:11.304Z,13.90
2019-02-23T22:16:00.654Z,14.03
2019-02-23T22:18:49.487Z,14.60
2019-02-23T22:21:19.669Z,13.60
2019-02-23T22:24:12.967Z,12.90
2019-02-23T22:27:00.520Z,15.13
2019-02-23T22:29:31.613Z,13.33
2019-02-23T22:32:04.985Z,14.40
2019-02-23T22:34:35.158Z,14.77
2019-02-23T22:37:33.599Z,14.07
2019-02-23T22:40:04.706Z,15.27
2019-02-23T22:42:34.925Z,32.53
2019-02-23T22:45:07.233Z,16.97
2019-02-23T22:47:37.425Z,15.33
2019-02-23T22:50:08.682Z,13.70
2019-02-23T22:52:51.104Z,15.30
2019-02-23T22:55:21.280Z,15.47
2019-02-23T22:57:51.495Z,15.00
2019-02-23T23:00:34.926Z,14.67
2019-02-23T23:03:06.725Z,14.37
2019-02-23T23:05:42.598Z,12.83
2019-02-23T23:08:13.061Z,14.47
2019-02-23T23:10:44.168Z,13.27
2019-02-23T23:13:14.356Z,14.27
2019-02-23T23:15:44.553Z,15.00
2019-02-23T23:18:32.848Z,15.93
2019-02-23T23:21:03.022Z,14.80
2019-02-23T23:23:33.229Z,14.80
2019-02-23T23:26:08.964Z,16.27
2019-02-23T23:28:39.154Z,14.83
2019-02-23T23:31:09.337Z,14.87
2019-02-23T23:34:13.971Z,14.57
2019-02-23T23:36:44.172Z,15.07
2019-02-23T23:39:33.333Z,14.80
2019-02-23T23:42:10.330Z,13.57
2019-02-23T23:44:46.759Z,13.80
2019-02-23T23:47:16.960Z,14.27
2019-02-23T23:49:47.156Z,15.10
2019-02-23T23:52:17.331Z,14.80
2019-02-23T23:55:25.505Z,14.97
2019-02-23T23:58:13.405Z,15.47
